Time;durP1;ratioP1;P1;durP2;ratioP2;P2;SDS_P1;SDS_P2;PMS_P1;PMS_P2;Temp;Humidity;BMP_temperature;BMP_pressure;BME280_temperature;BME280_humidity;BME280_pressure;Samples;Min_cycle;Max_cycle;Signal;HPM_P1;HPM_P2
2023/07/15 00:00:36;;;;;;;;;;;21.40;99.90;;;;;;5020202;28;19920;-79
2023/07/15 00:03:02;;;;;;;;;;;21.40;99.90;;;;;;5024485;28;19913;-80
2023/07/15 00:05:34;;;;;;;;;;;21.40;99.90;;;;;;5004611;28;20012;-80
2023/07/15 00:08:01;;;;;;;;;;;21.40;99.90;;;;;;5037654;28;19916;-79
2023/07/15 00:10:26;;;;;;;;;;;21.40;99.90;;;;;;4999072;28;20015;-80
2023/07/15 00:12:52;;;;;;;;;;;21.40;99.90;;;;;;5000668;28;19917;-80
2023/07/15 00:15:17;;;;;;;;;;;21.30;99.90;;;;;;5038565;28;19913;-79
2023/07/15 00:17:43;;;;;;;;;;;21.30;99.90;;;;;;5003318;28;19909;-79
2023/07/15 00:20:14;;;;;;;;;;;21.30;99.90;;;;;;5024045;28;20052;-79
2023/07/15 00:22:41;;;;;;;;;;;21.20;99.90;;;;;;5000003;28;19913;-79
2023/07/15 00:25:09;;;;;;;;;;;21.20;99.90;;;;;;4999278;28;19983;-80
2023/07/15 00:27:35;;;;;;;;;;;21.20;99.90;;;;;;5021506;28;19917;-79
2023/07/15 00:30:02;;;;;;;;;;;21.30;99.90;;;;;;5007078;28;19972;-79
2023/07/15 00:32:27;;;;;;;;;;;21.40;99.90;;;;;;5021296;28;19960;-79
2023/07/15 00:34:53;;;;;;;;;;;21.40;99.90;;;;;;5023994;28;19963;-78
2023/07/15 00:37:18;;;;;;;;;;;21.40;99.90;;;;;;4997934;28;20266;-79
2023/07/15 00:39:45;;;;;;;;;;;21.40;99.90;;;;;;5003210;28;20006;-80
2023/07/15 00:42:15;;;;;;;;;;;21.40;99.90;;;;;;5023608;28;19939;-79
2023/07/15 00:44:46;;;;;;;;;;;21.50;99.90;;;;;;5037084;28;20479;-80
2023/07/15 00:47:26;;;;;;;;;;;21.40;99.90;;;;;;5021435;28;19916;-79
2023/07/15 00:49:51;;;;;;;;;;;21.50;99.90;;;;;;5000559;28;19996;-79
2023/07/15 00:52:19;;;;;;;;;;;21.50;99.90;;;;;;5021500;28;19948;-78
2023/07/15 00:54:47;;;;;;;;;;;21.50;99.90;;;;;;5037991;28;19909;-81
2023/07/15 00:57:15;;;;;;;;;;;21.60;99.90;;;;;;5001207;28;19921;-79
2023/07/15 00:59:40;;;;;;;;;;;21.70;99.90;;;;;;5001157;28;20388;-81
2023/07/15 01:02:09;;;;;;;;;;;21.70;99.90;;;;;;5001991;28;19916;-80
2023/07/15 01:04:36;;;;;;;;;;;21.70;99.90;;;;;;5008758;28;19915;-81
2023/07/15 01:07:02;;;;;;;;;;;21.80;99.90;;;;;;5013213;28;19959;-79
2023/07/15 01:09:28;;;;;;;;;;;21.80;99.90;;;;;;5035646;28;19921;-80
2023/07/15 01:11:54;;;;;;;;;;;21.90;99.90;;;;;;5034952;28;19921;-81
2023/07/15 01:14:19;;;;;;;;;;;21.90;99.90;;;;;;5006406;28;19920;-80
2023/07/15 01:16:49;;;;;;;;;;;22.00;99.90;;;;;;5001308;28;19912;-80
2023/07/15 01:19:18;;;;;;;;;;;22.10;99.90;;;;;;5021588;28;19955;-80
2023/07/15 01:21:46;;;;;;;;;;;22.30;99.90;;;;;;5023759;28;19944;-80
2023/07/15 01:24:11;;;;;;;;;;;22.40;99.90;;;;;;5004847;28;19909;-81
2023/07/15 01:26:37;;;;;;;;;;;22.50;99.90;;;;;;5022686;28;19909;-80
2023/07/15 01:29:03;;;;;;;;;;;22.60;99.90;;;;;;5022118;28;20249;-80
2023/07/15 01:31:30;;;;;;;;;;;22.70;99.90;;;;;;5022298;28;19917;-79
2023/07/15 01:33:55;;;;;;;;;;;22.80;99.90;;;;;;5006917;28;19982;-79
2023/07/15 01:36:21;;;;;;;;;;;22.80;99.90;;;;;;5021893;28;21882;-80
2023/07/15 01:38:48;;;;;;;;;;;22.90;99.90;;;;;;4998019;28;20493;-80
2023/07/15 01:41:13;;;;;;;;;;;22.90;99.90;;;;;;5004078;28;19920;-80
2023/07/15 01:43:39;;;;;;;;;;;22.90;99.90;;;;;;5020002;28;19917;-80
2023/07/15 01:46:05;;;;;;;;;;;22.90;99.90;;;;;;5021456;28;19979;-79
2023/07/15 01:48:30;;;;;;;;;;;22.90;99.90;;;;;;4998054;28;20827;-80
2023/07/15 01:50:56;;;;;;;;;;;22.80;99.90;;;;;;5021314;28;19999;-79
2023/07/15 01:53:21;;;;;;;;;;;22.80;99.90;;;;;;5021196;28;19913;-80
2023/07/15 01:55:47;;;;;;;;;;;22.70;99.90;;;;;;5003989;28;19917;-79
2023/07/15 01:58:12;;;;;;;;;;;22.60;99.90;;;;;;5036255;28;19921;-79
2023/07/15 02:00:38;;;;;;;;;;;22.60;99.90;;;;;;5036360;28;20302;-80
2023/07/15 02:03:04;;;;;;;;;;;22.50;99.90;;;;;;5022465;28;20004;-79
2023/07/15 02:05:29;;;;;;;;;;;22.50;99.90;;;;;;5021685;28;20007;-80
2023/07/15 02:07:55;;;;;;;;;;;22.40;99.90;;;;;;5036392;28;19920;-79
2023/07/15 02:10:24;;;;;;;;;;;22.30;99.90;;;;;;5003369;28;20646;-80
2023/07/15 02:12:49;;;;;;;;;;;22.20;99.90;;;;;;5037009;28;19913;-79
2023/07/15 02:15:15;;;;;;;;;;;22.20;99.90;;;;;;5000758;28;19912;-80
2023/07/15 02:17:42;;;;;;;;;;;22.20;99.90;;;;;;5020733;28;19909;-80
2023/07/15 02:20:09;;;;;;;;;;;22.20;99.90;;;;;;5022605;28;19956;-79
2023/07/15 02:22:34;;;;;;;;;;;22.10;99.90;;;;;;5036124;28;20495;-80
2023/07/15 02:25:00;;;;;;;;;;;22.10;99.90;;;;;;5003715;28;20437;-80
2023/07/15 02:27:26;;;;;;;;;;;22.10;99.90;;;;;;5020589;28;20396;-80
2023/07/15 02:29:52;;;;;;;;;;;22.00;99.90;;;;;;5021645;28;19912;-79
2023/07/15 02:32:39;;;;;;;;;;;21.90;99.90;;;;;;5000774;28;20357;-80
2023/07/15 02:35:08;;;;;;;;;;;21.90;99.90;;;;;;5021748;28;20044;-80
2023/07/15 02:37:38;;;;;;;;;;;21.90;99.90;;;;;;5020428;28;19916;-80
2023/07/15 02:40:04;;;;;;;;;;;21.90;99.90;;;;;;5021123;28;20015;-80
2023/07/15 02:42:33;;;;;;;;;;;21.80;99.90;;;;;;5020801;28;19913;-79
2023/07/15 02:45:03;;;;;;;;;;;21.80;99.90;;;;;;5035823;28;20015;-80
2023/07/15 02:47:29;;;;;;;;;;;21.80;99.90;;;;;;5020398;28;19952;-80
2023/07/15 02:49:56;;;;;;;;;;;21.70;99.90;;;;;;5021453;28;19920;-81
2023/07/15 02:52:23;;;;;;;;;;;21.70;99.90;;;;;;4995309;28;19916;-79
2023/07/15 02:54:48;;;;;;;;;;;21.60;99.90;;;;;;5020906;28;19917;-79
2023/07/15 02:57:14;;;;;;;;;;;21.50;99.90;;;;;;5015049;28;20270;-79
2023/07/15 02:59:39;;;;;;;;;;;21.50;99.90;;;;;;5021034;28;19920;-80
2023/07/15 03:02:05;;;;;;;;;;;21.40;99.90;;;;;;5018677;28;19948;-80
2023/07/15 03:04:30;;;;;;;;;;;21.40;99.90;;;;;;5035919;28;19978;-79
2023/07/15 03:06:57;;;;;;;;;;;21.30;99.90;;;;;;4997509;28;19913;-80
2023/07/15 03:09:23;;;;;;;;;;;21.20;99.90;;;;;;5020467;28;19959;-79
2023/07/15 03:11:48;;;;;;;;;;;21.10;99.90;;;;;;5020593;28;19960;-79
2023/07/15 03:14:14;;;;;;;;;;;21.10;99.90;;;;;;5020937;28;19920;-79
2023/07/15 03:16:39;;;;;;;;;;;21.00;99.90;;;;;;4999836;28;19916;-80
2023/07/15 03:19:05;;;;;;;;;;;20.90;99.90;;;;;;4998436;28;19921;-80
2023/07/15 03:21:33;;;;;;;;;;;20.90;99.90;;;;;;4997310;28;19917;-79
2023/07/15 03:23:58;;;;;;;;;;;20.80;99.90;;;;;;5002990;28;19920;-80
2023/07/15 03:26:24;;;;;;;;;;;20.70;99.90;;;;;;5020769;28;19936;-80
2023/07/15 03:28:49;;;;;;;;;;;20.70;99.90;;;;;;4997710;28;20375;-80
2023/07/15 03:31:15;;;;;;;;;;;20.60;99.90;;;;;;5019015;28;19913;-82
2023/07/15 03:33:41;;;;;;;;;;;20.60;99.90;;;;;;5021067;28;19942;-79
2023/07/15 03:36:07;;;;;;;;;;;20.60;99.90;;;;;;4997911;28;19967;-80
2023/07/15 03:38:32;;;;;;;;;;;20.50;99.90;;;;;;5038554;28;20007;-79
2023/07/15 03:40:58;;;;;;;;;;;20.50;99.90;;;;;;5039309;28;19917;-79
2023/07/15 03:43:23;;;;;;;;;;;20.40;99.90;;;;;;5024929;28;20408;-79
2023/07/15 03:45:49;;;;;;;;;;;20.40;99.90;;;;;;5021913;28;20386;-79
2023/07/15 03:48:15;;;;;;;;;;;20.30;99.90;;;;;;5023173;28;19908;-78
2023/07/15 03:50:43;;;;;;;;;;;20.20;99.90;;;;;;5000870;28;20067;-79
2023/07/15 03:53:08;;;;;;;;;;;20.20;99.90;;;;;;5023064;28;20400;-79
2023/07/15 03:55:37;;;;;;;;;;;20.20;99.90;;;;;;4999225;28;19921;-79
2023/07/15 03:58:02;;;;;;;;;;;20.10;99.90;;;;;;5002257;28;20003;-78
2023/07/15 04:00:28;;;;;;;;;;;20.10;99.90;;;;;;5023188;28;20011;-78
2023/07/15 04:02:55;;;;;;;;;;;20.10;99.90;;;;;;5002420;28;20003;-78
2023/07/15 04:05:20;;;;;;;;;;;20.00;99.90;;;;;;5001477;28;19913;-79
2023/07/15 04:07:47;;;;;;;;;;;20.00;99.90;;;;;;5038243;28;19915;-79
2023/07/15 04:10:13;;;;;;;;;;;20.00;99.90;;;;;;5005738;28;19960;-78
2023/07/15 04:12:38;;;;;;;;;;;20.00;99.90;;;;;;5020341;28;20007;-79
2023/07/15 04:15:06;;;;;;;;;;;20.00;99.90;;;;;;5006173;28;20361;-79
2023/07/15 04:17:31;;;;;;;;;;;20.00;99.90;;;;;;5004984;28;20772;-80
2023/07/15 04:19:57;;;;;;;;;;;20.00;99.90;;;;;;5024503;28;19963;-79
2023/07/15 04:22:23;;;;;;;;;;;20.00;99.90;;;;;;5000786;28;19979;-80
2023/07/15 04:24:48;;;;;;;;;;;20.00;99.90;;;;;;5002036;28;19920;-80
2023/07/15 04:27:14;;;;;;;;;;;20.10;99.90;;;;;;5001656;28;19916;-81
2023/07/15 04:29:39;;;;;;;;;;;20.10;99.90;;;;;;5023202;28;19913;-81
2023/07/15 04:32:05;;;;;;;;;;;20.00;99.90;;;;;;5005482;28;19909;-80
2023/07/15 04:34:30;;;;;;;;;;;20.00;99.90;;;;;;4999668;28;19920;-80
2023/07/15 04:36:56;;;;;;;;;;;20.10;99.90;;;;;;5023657;28;20413;-80
2023/07/15 04:39:23;;;;;;;;;;;20.10;99.90;;;;;;5000224;28;19952;-80
2023/07/15 04:41:48;;;;;;;;;;;20.10;99.90;;;;;;5005468;28;20566;-80
2023/07/15 04:44:14;;;;;;;;;;;20.10;99.90;;;;;;5000229;28;19913;-80
2023/07/15 04:46:39;;;;;;;;;;;20.20;99.90;;;;;;5005166;28;19925;-80
2023/07/15 04:49:05;;;;;;;;;;;20.20;99.90;;;;;;5022205;28;19920;-80
2023/07/15 04:51:30;;;;;;;;;;;20.20;99.90;;;;;;5022487;28;19909;-81
2023/07/15 04:53:56;;;;;;;;;;;20.30;99.90;;;;;;4998229;28;19980;-78
2023/07/15 04:56:21;;;;;;;;;;;20.30;99.90;;;;;;5037519;28;20384;-78
2023/07/15 04:58:48;;;;;;;;;;;20.30;99.90;;;;;;5022455;28;19921;-79
2023/07/15 05:01:13;;;;;;;;;;;20.40;99.90;;;;;;5022568;28;19921;-79
2023/07/15 05:03:40;;;;;;;;;;;20.40;99.90;;;;;;5022665;28;19913;-79
2023/07/15 05:06:05;;;;;;;;;;;20.50;99.90;;;;;;5023035;28;19913;-80
2023/07/15 05:08:31;;;;;;;;;;;20.50;99.90;;;;;;5007907;28;19914;-79
2023/07/15 05:10:57;;;;;;;;;;;20.60;99.90;;;;;;5005235;28;20421;-79
2023/07/15 05:13:23;;;;;;;;;;;20.60;99.90;;;;;;5022673;28;19909;-80
2023/07/15 05:15:50;;;;;;;;;;;20.70;99.90;;;;;;5023139;28;20081;-79
2023/07/15 05:18:15;;;;;;;;;;;20.70;99.90;;;;;;5001397;28;19917;-80
2023/07/15 05:20:41;;;;;;;;;;;20.70;99.90;;;;;;5023733;28;19917;-79
2023/07/15 05:23:07;;;;;;;;;;;20.80;99.90;;;;;;5000031;28;19916;-78
2023/07/15 05:25:33;;;;;;;;;;;20.80;99.90;;;;;;5022143;28;19963;-79
2023/07/15 05:27:58;;;;;;;;;;;20.80;99.90;;;;;;5005216;28;20504;-80
2023/07/15 05:30:24;;;;;;;;;;;20.90;99.90;;;;;;5021022;28;20439;-79
2023/07/15 05:32:50;;;;;;;;;;;20.90;99.90;;;;;;4998607;28;19913;-79
2023/07/15 05:35:18;;;;;;;;;;;20.90;99.90;;;;;;5020583;28;19945;-79
2023/07/15 05:37:45;;;;;;;;;;;21.00;99.90;;;;;;5022380;28;20281;-79
2023/07/15 05:40:11;;;;;;;;;;;21.00;99.90;;;;;;5022322;28;20011;-79
2023/07/15 05:42:37;;;;;;;;;;;21.10;99.90;;;;;;5022025;28;20558;-80
2023/07/15 05:45:03;;;;;;;;;;;21.10;99.90;;;;;;5022037;28;19919;-79
2023/07/15 05:47:29;;;;;;;;;;;21.20;99.90;;;;;;4999686;28;19917;-79
2023/07/15 05:49:54;;;;;;;;;;;21.20;99.90;;;;;;4998877;28;20006;-79
2023/07/15 05:52:20;;;;;;;;;;;21.30;99.90;;;;;;4999501;28;20250;-80
2023/07/15 05:54:45;;;;;;;;;;;21.30;99.90;;;;;;5021489;28;19967;-79
2023/07/15 05:57:11;;;;;;;;;;;21.40;99.90;;;;;;5022548;28;19916;-78
2023/07/15 05:59:38;;;;;;;;;;;21.40;99.90;;;;;;5020427;28;20711;-79
2023/07/15 06:02:04;;;;;;;;;;;21.50;99.90;;;;;;4999114;28;19917;-80
2023/07/15 06:04:30;;;;;;;;;;;21.60;99.90;;;;;;5003104;28;19954;-79
2023/07/15 06:06:55;;;;;;;;;;;21.70;99.90;;;;;;4999600;28;20288;-79
2023/07/15 06:09:21;;;;;;;;;;;21.80;99.90;;;;;;5003868;28;19929;-79
2023/07/15 06:11:46;;;;;;;;;;;21.90;99.90;;;;;;5021577;28;19921;-80
2023/07/15 06:14:12;;;;;;;;;;;21.90;99.90;;;;;;5020301;28;20454;-79
2023/07/15 06:16:37;;;;;;;;;;;22.00;99.90;;;;;;4999009;28;19909;-80
2023/07/15 06:19:04;;;;;;;;;;;22.00;99.90;;;;;;5021360;28;19940;-78
2023/07/15 06:21:29;;;;;;;;;;;22.10;99.90;;;;;;4999118;28;19917;-79
2023/07/15 06:23:55;;;;;;;;;;;22.10;99.90;;;;;;5020436;28;20424;-79
2023/07/15 06:26:20;;;;;;;;;;;22.10;99.90;;;;;;5021290;28;19916;-79
2023/07/15 06:28:46;;;;;;;;;;;22.10;99.90;;;;;;4999559;28;19913;-79
2023/07/15 06:31:12;;;;;;;;;;;22.20;99.90;;;;;;5035886;28;19917;-78
2023/07/15 06:33:37;;;;;;;;;;;22.20;99.90;;;;;;5003652;28;19912;-79
2023/07/15 06:36:03;;;;;;;;;;;22.30;99.90;;;;;;5004163;28;19909;-79
2023/07/15 06:38:30;;;;;;;;;;;22.30;99.90;;;;;;5019936;28;19921;-78
2023/07/15 06:40:56;;;;;;;;;;;22.30;99.90;;;;;;4998897;28;20423;-80
2023/07/15 06:43:22;;;;;;;;;;;22.30;99.90;;;;;;4997824;28;19913;-79
2023/07/15 06:45:49;;;;;;;;;;;22.40;99.90;;;;;;5003340;28;19916;-81
2023/07/15 06:48:17;;;;;;;;;;;22.50;99.90;;;;;;5015182;28;19917;-81
2023/07/15 06:50:42;;;;;;;;;;;22.50;99.90;;;;;;5019426;28;19913;-81
2023/07/15 06:53:08;;;;;;;;;;;22.60;99.90;;;;;;4998477;28;20298;-80
2023/07/15 06:55:33;;;;;;;;;;;22.60;99.90;;;;;;5004200;28;19925;-81
2023/07/15 06:58:01;;;;;;;;;;;22.70;99.90;;;;;;5020638;28;20809;-81
2023/07/15 07:00:27;;;;;;;;;;;22.70;99.90;;;;;;5003194;28;19999;-80
2023/07/15 07:02:52;;;;;;;;;;;22.80;99.90;;;;;;5035244;28;19913;-82
2023/07/15 07:05:19;;;;;;;;;;;22.80;99.90;;;;;;4997403;28;20136;-80
2023/07/15 07:07:45;;;;;;;;;;;22.80;99.90;;;;;;5003070;28;19914;-80
2023/07/15 07:10:12;;;;;;;;;;;22.90;99.90;;;;;;5019812;28;19918;-82
2023/07/15 07:12:38;;;;;;;;;;;22.90;99.90;;;;;;5039244;28;19913;-81
2023/07/15 07:15:05;;;;;;;;;;;23.00;99.90;;;;;;5001834;28;19920;-81
2023/07/15 07:17:30;;;;;;;;;;;23.00;99.90;;;;;;5024349;28;20007;-81
2023/07/15 07:19:56;;;;;;;;;;;23.00;99.90;;;;;;5024699;28;19917;-80
2023/07/15 07:22:21;;;;;;;;;;;23.10;99.90;;;;;;5007105;28;19939;-80
2023/07/15 07:24:47;;;;;;;;;;;23.10;99.90;;;;;;5001115;28;19948;-80
2023/07/15 07:27:13;;;;;;;;;;;23.20;99.90;;;;;;5020353;28;20367;-80
2023/07/15 07:29:39;;;;;;;;;;;23.20;99.90;;;;;;5006011;28;19917;-80
2023/07/15 07:32:05;;;;;;;;;;;23.30;99.90;;;;;;5006786;28;19923;-80
2023/07/15 07:34:31;;;;;;;;;;;23.30;99.90;;;;;;5038683;28;19968;-80
2023/07/15 07:36:57;;;;;;;;;;;23.40;99.90;;;;;;5019584;28;19908;-80
2023/07/15 07:39:22;;;;;;;;;;;23.40;99.90;;;;;;5026229;28;19987;-80
2023/07/15 07:41:48;;;;;;;;;;;23.50;99.90;;;;;;5019011;28;19921;-80
2023/07/15 07:44:13;;;;;;;;;;;23.60;99.90;;;;;;5014891;28;20464;-81
2023/07/15 07:46:39;;;;;;;;;;;23.70;99.90;;;;;;5011937;28;19913;-79
2023/07/15 07:49:04;;;;;;;;;;;23.80;99.90;;;;;;5027675;28;19989;-80
2023/07/15 07:51:30;;;;;;;;;;;23.80;99.90;;;;;;5022062;28;20265;-80
2023/07/15 07:53:55;;;;;;;;;;;23.80;99.90;;;;;;5000415;28;19912;-80
2023/07/15 07:56:21;;;;;;;;;;;23.90;99.90;;;;;;5006110;28;20330;-80
2023/07/15 07:58:46;;;;;;;;;;;24.00;99.90;;;;;;5002335;28;20503;-80
2023/07/15 08:01:12;;;;;;;;;;;24.20;99.90;;;;;;4998124;28;19917;-79
2023/07/15 08:03:38;;;;;;;;;;;24.50;99.90;;;;;;5022359;28;19918;-80
2023/07/15 08:06:04;;;;;;;;;;;24.70;99.90;;;;;;5022173;28;19919;-80
2023/07/15 08:08:30;;;;;;;;;;;24.80;99.90;;;;;;4998500;28;19935;-80
2023/07/15 08:10:56;;;;;;;;;;;24.90;99.90;;;;;;4996017;28;19921;-79
2023/07/15 08:13:22;;;;;;;;;;;25.00;99.90;;;;;;4984933;28;19914;-80
2023/07/15 08:15:47;;;;;;;;;;;25.00;99.90;;;;;;4986056;28;19920;-80
2023/07/15 08:18:13;;;;;;;;;;;25.20;99.90;;;;;;5018207;28;19916;-80
2023/07/15 08:20:41;;;;;;;;;;;25.30;99.90;;;;;;5003413;28;20401;-80
2023/07/15 08:23:07;;;;;;;;;;;25.40;99.90;;;;;;5003318;28;20288;-80
2023/07/15 08:25:33;;;;;;;;;;;25.50;99.90;;;;;;4980360;28;19914;-79
2023/07/15 08:27:59;;;;;;;;;;;25.60;99.90;;;;;;4983495;28;20010;-80
2023/07/15 08:30:26;;;;;;;;;;;25.60;99.90;;;;;;5002305;28;19921;-80
2023/07/15 08:32:53;;;;;;;;;;;25.60;99.90;;;;;;5003438;28;19921;-80
2023/07/15 08:35:19;;;;;;;;;;;25.50;99.90;;;;;;5015806;28;19964;-79
2023/07/15 08:37:44;;;;;;;;;;;25.50;99.90;;;;;;5001066;28;19963;-78
2023/07/15 08:40:11;;;;;;;;;;;25.50;99.90;;;;;;4997648;28;19924;-79
2023/07/15 08:42:38;;;;;;;;;;;25.60;99.90;;;;;;4999515;28;19925;-78
2023/07/15 08:45:06;;;;;;;;;;;25.60;99.90;;;;;;5015919;28;20369;-78
2023/07/15 08:47:31;;;;;;;;;;;25.80;99.90;;;;;;4980676;28;19918;-78
2023/07/15 08:50:05;;;;;;;;;;;25.80;99.90;;;;;;5002489;28;19995;-78
2023/07/15 08:52:37;;;;;;;;;;;25.80;99.90;;;;;;5001998;28;20119;-79
2023/07/15 08:55:11;;;;;;;;;;;25.80;99.90;;;;;;5002065;28;19936;-78
2023/07/15 08:57:40;;;;;;;;;;;26.00;99.90;;;;;;4978535;28;19909;-79
2023/07/15 09:00:10;;;;;;;;;;;26.10;99.90;;;;;;5017366;28;19924;-79
2023/07/15 09:02:47;;;;;;;;;;;26.30;99.90;;;;;;5002216;28;19917;-78
2023/07/15 09:05:20;;;;;;;;;;;26.30;99.90;;;;;;5002090;28;19913;-78
2023/07/15 09:07:53;;;;;;;;;;;26.30;99.90;;;;;;4980610;28;19921;-79
2023/07/15 09:10:18;;;;;;;;;;;26.20;99.90;;;;;;5003524;28;19925;-78
2023/07/15 09:12:57;;;;;;;;;;;26.10;99.90;;;;;;5022063;28;19912;-78
2023/07/15 09:15:34;;;;;;;;;;;26.10;99.90;;;;;;5016417;28;19990;-78
2023/07/15 09:18:07;;;;;;;;;;;26.00;99.90;;;;;;5036301;28;19912;-79
2023/07/15 09:20:33;;;;;;;;;;;26.10;99.90;;;;;;5035466;28;20028;-77
2023/07/15 09:23:16;;;;;;;;;;;26.10;99.90;;;;;;5022159;28;19913;-79
2023/07/15 09:26:11;;;;;;;;;;;26.00;99.90;;;;;;4997975;28;19917;-80
2023/07/15 09:28:43;;;;;;;;;;;26.00;99.90;;;;;;5003385;28;19924;-79
2023/07/15 09:31:10;;;;;;;;;;;26.10;99.90;;;;;;5020543;28;19958;-79
2023/07/15 09:33:47;;;;;;;;;;;26.10;99.90;;;;;;5019881;28;19916;-79
2023/07/15 09:36:15;;;;;;;;;;;25.90;99.90;;;;;;4996297;28;19939;-78
2023/07/15 09:38:44;;;;;;;;;;;25.80;99.90;;;;;;5020260;28;19917;-77
2023/07/15 09:41:18;;;;;;;;;;;25.60;99.90;;;;;;4999611;28;19953;-78
2023/07/15 09:43:48;;;;;;;;;;;25.40;99.90;;;;;;5020216;28;19967;-78
2023/07/15 09:46:15;;;;;;;;;;;25.30;99.90;;;;;;4997155;28;20425;-77
2023/07/15 09:48:42;;;;;;;;;;;25.30;99.90;;;;;;5019926;28;19909;-78
2023/07/15 09:51:12;;;;;;;;;;;25.30;99.90;;;;;;5001984;28;19913;-78
2023/07/15 09:53:43;;;;;;;;;;;25.40;99.90;;;;;;5020630;28;19956;-78
2023/07/15 09:56:13;;;;;;;;;;;25.40;99.90;;;;;;4999375;28;19932;-78
2023/07/15 09:58:41;;;;;;;;;;;25.60;99.90;;;;;;5019581;28;19927;-78
2023/07/15 10:01:11;;;;;;;;;;;26.00;99.90;;;;;;4998778;28;19923;-79
2023/07/15 10:03:40;;;;;;;;;;;26.20;99.90;;;;;;5017671;28;19959;-77
2023/07/15 10:06:05;;;;;;;;;;;26.30;99.90;;;;;;5003307;28;20396;-77
2023/07/15 10:08:32;;;;;;;;;;;26.30;99.90;;;;;;5002380;28;19923;-77
2023/07/15 10:10:58;;;;;;;;;;;26.30;99.90;;;;;;5021069;28;19928;-78
2023/07/15 10:13:24;;;;;;;;;;;26.20;99.90;;;;;;5019957;28;19971;-77
2023/07/15 10:15:59;;;;;;;;;;;26.00;99.90;;;;;;5019361;28;19935;-77
2023/07/15 10:18:28;;;;;;;;;;;25.80;99.90;;;;;;5034376;28;20392;-77
2023/07/15 10:20:55;;;;;;;;;;;25.60;99.90;;;;;;4999270;28;19920;-78
2023/07/15 10:23:25;;;;;;;;;;;25.40;99.90;;;;;;4997236;28;19936;-77
2023/07/15 10:26:00;;;;;;;;;;;25.30;99.90;;;;;;5001142;28;19909;-77
2023/07/15 10:28:28;;;;;;;;;;;25.40;99.90;;;;;;5019333;28;19924;-78
2023/07/15 10:31:05;;;;;;;;;;;25.30;99.90;;;;;;5020279;28;19909;-77
2023/07/15 10:33:34;;;;;;;;;;;25.20;99.90;;;;;;4996295;28;20439;-77
2023/07/15 10:36:02;;;;;;;;;;;25.20;99.90;;;;;;5015851;28;20012;-77
2023/07/15 10:38:31;;;;;;;;;;;25.20;99.90;;;;;;5015473;28;19921;-77
2023/07/15 10:40:57;;;;;;;;;;;25.10;99.90;;;;;;4996596;28;22181;-77
2023/07/15 10:43:35;;;;;;;;;;;25.00;99.90;;;;;;5033023;28;19913;-78
2023/07/15 10:46:01;;;;;;;;;;;24.90;99.90;;;;;;5033694;28;20004;-77
2023/07/15 10:48:27;;;;;;;;;;;25.00;99.90;;;;;;5001181;28;20036;-77
2023/07/15 10:50:56;;;;;;;;;;;25.00;99.90;;;;;;5019572;28;20015;-77
2023/07/15 10:53:29;;;;;;;;;;;25.00;99.90;;;;;;4995615;28;19925;-77
2023/07/15 10:55:55;;;;;;;;;;;24.80;99.90;;;;;;5002409;28;19936;-77
2023/07/15 10:58:21;;;;;;;;;;;24.60;99.90;;;;;;5019913;28;20000;-77
2023/07/15 11:00:47;;;;;;;;;;;24.60;99.90;;;;;;4998040;28;19917;-77
2023/07/15 11:03:13;;;;;;;;;;;24.50;99.90;;;;;;4996924;28;19967;-77
2023/07/15 11:05:38;;;;;;;;;;;24.30;99.90;;;;;;5002217;28;19923;-77
2023/07/15 11:08:08;;;;;;;;;;;24.00;99.90;;;;;;5018723;28;20310;-77
2023/07/15 11:10:34;;;;;;;;;;;24.00;99.90;;;;;;5013372;28;19917;-77
2023/07/15 11:13:13;;;;;;;;;;;24.30;99.90;;;;;;5034356;28;19924;-77
2023/07/15 11:15:38;;;;;;;;;;;24.70;99.90;;;;;;5002608;28;19913;-77
2023/07/15 11:18:04;;;;;;;;;;;25.00;99.90;;;;;;5019775;28;20388;-77
2023/07/15 11:20:30;;;;;;;;;;;25.00;99.90;;;;;;5018875;28;20125;-78
2023/07/15 11:22:56;;;;;;;;;;;25.00;99.90;;;;;;5003391;28;19971;-78
2023/07/15 11:25:21;;;;;;;;;;;25.00;99.90;;;;;;5002207;28;19968;-77
2023/07/15 11:27:47;;;;;;;;;;;25.30;99.90;;;;;;5020231;28;20524;-77
2023/07/15 11:30:13;;;;;;;;;;;26.00;99.90;;;;;;5010803;28;20261;-77
2023/07/15 11:32:40;;;;;;;;;;;26.30;99.90;;;;;;5002797;28;19959;-77
2023/07/15 11:35:11;;;;;;;;;;;26.20;99.90;;;;;;5016477;28;19917;-77
2023/07/15 11:37:41;;;;;;;;;;;26.00;99.90;;;;;;5019427;28;19920;-77
2023/07/15 11:40:14;;;;;;;;;;;25.70;99.90;;;;;;5033129;28;19957;-77
2023/07/15 11:42:40;;;;;;;;;;;25.60;99.90;;;;;;5019332;28;19963;-77
2023/07/15 11:45:06;;;;;;;;;;;25.60;99.90;;;;;;5019298;28;19917;-77
2023/07/15 11:47:35;;;;;;;;;;;25.90;99.90;;;;;;5018828;28;20056;-76
2023/07/15 11:50:01;;;;;;;;;;;26.10;99.90;;;;;;5017875;28;20045;-78
2023/07/15 11:52:27;;;;;;;;;;;26.00;99.90;;;;;;4996524;28;19920;-77
2023/07/15 11:54:53;;;;;;;;;;;25.80;99.90;;;;;;5034620;28;19913;-77
2023/07/15 11:57:28;;;;;;;;;;;25.60;99.90;;;;;;5034849;28;19970;-77
2023/07/15 11:59:53;;;;;;;;;;;25.60;99.90;;;;;;5005013;28;20364;-77
2023/07/15 12:02:22;;;;;;;;;;;26.30;99.90;;;;;;5022246;28;19921;-78
2023/07/15 12:04:49;;;;;;;;;;;27.10;99.90;;;;;;5000911;28;20059;-78
2023/07/15 12:07:19;;;;;;;;;;;27.50;99.90;;;;;;5020846;28;20365;-78
2023/07/15 12:09:44;;;;;;;;;;;27.60;99.90;;;;;;5007249;28;19921;-78
2023/07/15 12:12:10;;;;;;;;;;;27.80;99.90;;;;;;5019434;28;19975;-78
2023/07/15 12:14:36;;;;;;;;;;;27.80;99.90;;;;;;5006239;28;19967;-78
2023/07/15 12:17:04;;;;;;;;;;;27.60;99.90;;;;;;5021622;28;19916;-78
2023/07/15 12:19:32;;;;;;;;;;;27.80;99.90;;;;;;5018585;28;19921;-78
2023/07/15 12:22:01;;;;;;;;;;;28.00;99.90;;;;;;5022324;28;20357;-82
2023/07/15 12:24:27;;;;;;;;;;;28.20;99.90;;;;;;4999485;28;20270;-79
2023/07/15 12:26:52;;;;;;;;;;;28.20;99.90;;;;;;5035322;28;19913;-79
2023/07/15 12:29:20;;;;;;;;;;;28.00;99.90;;;;;;5019813;28;19913;-79
2023/07/15 12:31:46;;;;;;;;;;;28.20;99.90;;;;;;5003264;28;19919;-79
2023/07/15 12:34:11;;;;;;;;;;;28.60;99.90;;;;;;4998399;28;19931;-79
2023/07/15 12:36:37;;;;;;;;;;;28.90;99.80;;;;;;4999060;28;20353;-80
2023/07/15 12:39:02;;;;;;;;;;;28.90;99.20;;;;;;5004420;28;19925;-79
2023/07/15 12:41:28;;;;;;;;;;;28.80;98.50;;;;;;4998713;28;19917;-80
2023/07/15 12:43:53;;;;;;;;;;;28.60;99.00;;;;;;5003936;28;19921;-80
2023/07/15 12:46:20;;;;;;;;;;;28.70;99.10;;;;;;4995668;28;19924;-80
2023/07/15 12:48:48;;;;;;;;;;;28.70;99.00;;;;;;5017810;28;19924;-81
2023/07/15 12:51:14;;;;;;;;;;;29.00;99.40;;;;;;5018257;28;19913;-80
2023/07/15 12:53:40;;;;;;;;;;;29.70;99.10;;;;;;5021354;28;20341;-80
2023/07/15 12:56:11;;;;;;;;;;;29.80;98.80;;;;;;5022169;28;19932;-80
2023/07/15 12:58:36;;;;;;;;;;;29.60;98.60;;;;;;5022023;28;19916;-79
2023/07/15 13:01:02;;;;;;;;;;;29.20;98.70;;;;;;5002467;28;19918;-80
2023/07/15 13:03:28;;;;;;;;;;;28.90;99.10;;;;;;5019124;28;19979;-79
2023/07/15 13:05:55;;;;;;;;;;;29.10;99.40;;;;;;5021620;28;19913;-80
2023/07/15 13:08:21;;;;;;;;;;;30.10;99.00;;;;;;4997443;28;19928;-80
2023/07/15 13:10:46;;;;;;;;;;;30.50;98.40;;;;;;4998351;28;19913;-79
2023/07/15 13:13:17;;;;;;;;;;;30.50;97.50;;;;;;4997233;28;20273;-79
2023/07/15 13:15:44;;;;;;;;;;;30.30;97.50;;;;;;5020880;28;19971;-80
2023/07/15 13:18:11;;;;;;;;;;;30.50;97.60;;;;;;5003925;28;19940;-80
2023/07/15 13:20:36;;;;;;;;;;;30.80;97.70;;;;;;5003298;28;19925;-79
2023/07/15 13:23:02;;;;;;;;;;;31.00;97.00;;;;;;5022077;28;20248;-80
2023/07/15 13:25:29;;;;;;;;;;;31.60;97.30;;;;;;5022324;28;19920;-79
2023/07/15 13:27:56;;;;;;;;;;;32.10;97.30;;;;;;4999726;28;19917;-80
2023/07/15 13:30:21;;;;;;;;;;;32.30;95.90;;;;;;4995852;28;19952;-80
2023/07/15 13:32:47;;;;;;;;;;;32.20;96.20;;;;;;5021017;28;20006;-80
2023/07/15 13:35:13;;;;;;;;;;;31.70;96.40;;;;;;5002620;28;19992;-79
2023/07/15 13:37:38;;;;;;;;;;;31.20;96.00;;;;;;4998008;28;19995;-79
2023/07/15 13:40:09;;;;;;;;;;;30.90;96.60;;;;;;5021694;28;19921;-80
2023/07/15 13:42:53;;;;;;;;;;;31.00;96.70;;;;;;5022041;28;19928;-80
2023/07/15 13:45:19;;;;;;;;;;;31.20;96.80;;;;;;5020615;28;19908;-81
2023/07/15 13:47:52;;;;;;;;;;;31.40;96.80;;;;;;5021069;28;19924;-80
2023/07/15 13:50:18;;;;;;;;;;;31.70;96.70;;;;;;4998660;28;19916;-80
2023/07/15 13:52:45;;;;;;;;;;;31.30;96.40;;;;;;5002698;28;19920;-80
2023/07/15 13:55:11;;;;;;;;;;;30.90;96.50;;;;;;5019710;28;19932;-80
2023/07/15 13:57:36;;;;;;;;;;;30.70;96.80;;;;;;5013928;28;20349;-81
2023/07/15 14:00:04;;;;;;;;;;;30.70;97.00;;;;;;5020883;28;19925;-82
2023/07/15 14:02:29;;;;;;;;;;;31.20;97.10;;;;;;5020961;28;19916;-81
2023/07/15 14:04:57;;;;;;;;;;;31.50;96.20;;;;;;5003074;28;20276;-82
2023/07/15 14:07:23;;;;;;;;;;;31.30;95.90;;;;;;4997698;28;19920;-80
2023/07/15 14:09:54;;;;;;;;;;;31.20;95.30;;;;;;5027498;28;19916;-81
2023/07/15 14:12:20;;;;;;;;;;;31.30;95.60;;;;;;5043057;28;19959;-81
2023/07/15 14:14:52;;;;;;;;;;;31.40;95.70;;;;;;5030182;28;19909;-82